Time,TemperatureF,DewpointF,PressureIn,WindDirection,WindDirectionDegrees,WindSpeedMPH,WindSpeedGustMPH,Humidity,HourlyPrecipIn,Conditions,Clouds,dailyrainin,SoftwareType,DateUTC
2013-06-06 00:02:00,58.0,55.0,-100.00,West,265,2.0,3.0,93,0.00,,,0.00,,2013-06-06 05:02:00,
2013-06-06 00:12:00,57.0,55.0,-100.00,West,265,0.0,2.0,95,0.00,,,0.00,,2013-06-06 05:12:00,
2013-06-06 00:22:00,56.0,55.0,-100.00,SSW,210,3.0,3.0,99,0.00,,,0.00,,2013-06-06 05:22:00,
2013-06-06 00:32:00,56.0,55.0,-100.00,SW,215,3.0,4.0,99,0.00,,,0.00,,2013-06-06 05:32:00,
2013-06-06 00:42:00,56.0,55.0,-100.00,SW,215,4.0,4.0,99,0.00,,,0.00,,2013-06-06 05:42:00,
2013-06-06 00:52:00,56.0,55.0,-100.00,SW,230,4.0,6.0,99,0.00,,,0.00,,2013-06-06 05:52:00,
2013-06-06 01:42:00,57.0,57.0,-100.00,West,270,3.0,6.0,99,0.00,,,0.00,,2013-06-06 06:42:00,
2013-06-06 02:52:00,56.0,55.0,-100.00,WNW,285,6.0,10.0,99,0.00,,,0.00,,2013-06-06 07:52:00,
2013-06-06 03:02:00,56.0,55.0,-100.00,WNW,285,6.0,7.0,99,0.00,,,0.00,,2013-06-06 08:02:00,
2013-06-06 03:12:00,56.0,55.0,-100.00,NW,310,6.0,8.0,99,0.00,,,0.00,,2013-06-06 08:12:00,
2013-06-06 03:22:00,56.0,55.0,-100.00,WNW,285,6.0,11.0,99,0.00,,,0.00,,2013-06-06 08:22:00,
2013-06-06 03:32:00,56.0,55.0,-100.00,WNW,300,7.0,10.0,99,0.00,,,0.00,,2013-06-06 08:32:00,
2013-06-06 03:42:00,56.0,55.0,-100.00,NW,310,6.0,11.0,99,0.00,,,0.00,,2013-06-06 08:42:00,
2013-06-06 03:52:00,56.0,55.0,-100.00,WNW,295,4.0,9.0,99,0.00,,,0.00,,2013-06-06 08:52:00,
2013-06-06 04:02:00,56.0,55.0,-100.00,WNW,295,7.0,10.0,99,0.00,,,0.00,,2013-06-06 09:02:00,
2013-06-06 04:12:00,55.0,55.0,-100.00,West,280,6.0,11.0,99,0.00,,,0.00,,2013-06-06 09:12:00,
2013-06-06 04:22:00,55.0,55.0,-100.00,NW,310,7.0,11.0,99,0.00,,,0.00,,2013-06-06 09:22:00,
2013-06-06 05:12:00,55.0,54.0,-100.00,WNW,285,4.0,9.0,99,0.00,,,0.00,,2013-06-06 10:12:00,
2013-06-06 05:22:00,54.0,54.0,-100.00,WNW,295,5.0,8.0,99,0.00,,,0.00,,2013-06-06 10:22:00,
2013-06-06 05:33:00,54.0,54.0,-100.00,NW,305,4.0,9.0,99,0.00,,,0.00,,2013-06-06 10:33:00,
2013-06-06 05:42:00,54.0,54.0,-100.00,WNW,295,7.0,9.0,99,0.00,,,0.00,,2013-06-06 10:42:00,
2013-06-06 05:52:00,54.0,54.0,-100.00,WNW,295,4.0,9.0,99,0.00,,,0.00,,2013-06-06 10:52:00,
2013-06-06 06:02:00,54.0,54.0,-100.00,WNW,290,6.0,7.0,99,0.00,,,0.00,,2013-06-06 11:02:00,
2013-06-06 06:12:00,54.0,54.0,-100.00,WNW,285,6.0,9.0,99,0.00,,,0.00,,2013-06-06 11:12:00,
2013-06-06 06:42:00,54.0,54.0,-100.00,WNW,295,3.0,6.0,99,0.00,,,0.00,,2013-06-06 11:42:00,
2013-06-06 06:52:00,54.0,54.0,-100.00,WNW,285,2.0,4.0,99,0.00,,,0.00,,2013-06-06 11:52:00,
2013-06-06 07:02:00,54.0,54.0,-100.00,West,270,4.0,6.0,99,0.00,,,0.00,,2013-06-06 12:02:00,
2013-06-06 07:12:00,54.0,54.0,-100.00,WNW,285,3.0,6.0,99,0.00,,,0.00,,2013-06-06 12:12:00,
2013-06-06 07:22:00,55.0,54.0,-100.00,WNW,285,4.0,6.0,99,0.00,,,0.00,,2013-06-06 12:22:00,
2013-06-06 07:32:00,55.0,54.0,-100.00,West,280,4.0,6.0,99,0.00,,,0.00,,2013-06-06 12:32:00,
2013-06-06 07:42:00,55.0,54.0,-100.00,West,280,4.0,6.0,99,0.00,,,0.00,,2013-06-06 12:42:00,
2013-06-06 07:52:00,55.0,55.0,-100.00,WNW,295,3.0,9.0,99,0.00,,,0.00,,2013-06-06 12:52:00,
2013-06-06 09:03:00,56.0,54.0,-100.00,NW,305,9.0,11.0,93,0.00,,,0.00,,2013-06-06 14:03:00,
2013-06-06 09:13:00,56.0,54.0,-100.00,WNW,300,9.0,11.0,93,0.00,,,0.00,,2013-06-06 14:13:00,
2013-06-06 09:22:00,57.0,54.0,-100.00,NW,315,9.0,12.0,88,0.00,,,0.00,,2013-06-06 14:22:00,
2013-06-06 09:33:00,57.0,50.0,-100.00,WNW,285,7.0,12.0,78,0.00,,,0.00,,2013-06-06 14:33:00,
2013-06-06 09:43:00,58.0,50.0,-100.00,WNW,285,7.0,11.0,74,0.00,,,0.00,,2013-06-06 14:43:00,
2013-06-06 09:52:00,57.0,50.0,-100.00,WNW,285,9.0,12.0,74,0.00,,,0.00,,2013-06-06 14:52:00,
2013-06-06 10:03:00,57.0,52.0,-100.00,WNW,290,6.0,10.0,78,0.00,,,0.00,,2013-06-06 15:03:00,
2013-06-06 10:12:00,57.0,52.0,-100.00,WNW,290,7.0,10.0,81,0.00,,,0.00,,2013-06-06 15:12:00,
2013-06-06 10:23:00,57.0,52.0,-100.00,West,270,6.0,9.0,82,0.00,,,0.00,,2013-06-06 15:23:00,
2013-06-06 10:33:00,57.0,52.0,-100.00,West,270,7.0,11.0,85,0.00,,,0.00,,2013-06-06 15:33:00,
2013-06-06 10:43:00,56.0,54.0,-100.00,West,280,6.0,10.0,88,0.00,,,0.00,,2013-06-06 15:43:00,
2013-06-06 10:52:00,56.0,54.0,-100.00,West,275,7.0,14.0,92,0.00,,,0.00,,2013-06-06 15:52:00,
2013-06-06 11:03:00,56.0,54.0,-100.00,WNW,295,10.0,12.0,93,0.00,,,0.00,,2013-06-06 16:03:00,
2013-06-06 11:12:00,55.0,54.0,-100.00,WNW,295,9.0,15.0,93,0.00,,,0.00,,2013-06-06 16:12:00,
2013-06-06 11:23:00,56.0,52.0,-100.00,WNW,295,9.0,12.0,87,0.00,,,0.00,,2013-06-06 16:23:00,
2013-06-06 11:33:00,57.0,54.0,-100.00,WNW,285,6.0,12.0,88,0.00,,,0.00,,2013-06-06 16:33:00,
2013-06-06 11:43:00,56.0,54.0,-100.00,West,280,7.0,11.0,88,0.00,,,0.00,,2013-06-06 16:43:00,
2013-06-06 11:52:00,58.0,54.0,-100.00,West,275,8.0,10.0,86,0.00,,,0.00,,2013-06-06 16:52:00,
2013-06-06 12:03:00,59.0,54.0,-100.00,SW,230,4.0,9.0,84,0.00,,,0.00,,2013-06-06 17:03:00,
2013-06-06 12:13:00,58.0,54.0,-100.00,WNW,295,5.0,9.0,84,0.00,,,0.00,,2013-06-06 17:13:00,
2013-06-06 12:22:00,58.0,54.0,-100.00,West,260,6.0,11.0,83,0.00,,,0.00,,2013-06-06 17:22:00,
2013-06-06 12:33:00,58.0,54.0,-100.00,West,270,4.0,9.0,84,0.00,,,0.00,,2013-06-06 17:33:00,
2013-06-06 12:42:00,58.0,54.0,-100.00,West,260,5.0,9.0,84,0.00,,,0.00,,2013-06-06 17:42:00,
2013-06-06 12:52:00,57.0,54.0,-100.00,WNW,290,9.0,12.0,85,0.00,,,0.00,,2013-06-06 17:52:00,
2013-06-06 13:03:00,57.0,55.0,-100.00,WNW,285,7.0,12.0,91,0.00,,,0.00,,2013-06-06 18:03:00,
2013-06-06 13:13:00,57.0,54.0,-100.00,West,280,11.0,14.0,88,0.00,,,0.00,,2013-06-06 18:13:00,
2013-06-06 13:23:00,57.0,54.0,-100.00,West,265,6.0,11.0,89,0.00,,,0.00,,2013-06-06 18:23:00,
2013-06-06 13:33:00,57.0,54.0,-100.00,WNW,285,7.0,12.0,88,0.00,,,0.00,,2013-06-06 18:33:00,
2013-06-06 13:43:00,58.0,55.0,-100.00,West,280,6.0,12.0,88,0.00,,,0.00,,2013-06-06 18:43:00,
2013-06-06 13:52:00,58.0,54.0,-100.00,WNW,285,8.0,12.0,86,0.00,,,0.00,,2013-06-06 18:52:00,
2013-06-06 14:03:00,57.0,54.0,-100.00,WNW,295,7.0,11.0,87,0.00,,,0.00,,2013-06-06 19:03:00,
2013-06-06 14:12:00,58.0,55.0,-100.00,WNW,290,7.0,11.0,89,0.00,,,0.00,,2013-06-06 19:12:00,
2013-06-06 14:23:00,58.0,54.0,-100.00,WNW,300,8.0,11.0,88,0.00,,,0.00,,2013-06-06 19:23:00,
2013-06-06 14:33:00,57.0,55.0,-100.00,WNW,290,9.0,11.0,90,0.00,,,0.00,,2013-06-06 19:33:00,
2013-06-06 14:42:00,58.0,55.0,-100.00,WNW,300,7.0,10.0,89,0.00,,,0.00,,2013-06-06 19:42:00,
2013-06-06 14:52:00,57.0,54.0,-100.00,WNW,295,8.0,11.0,90,0.00,,,0.00,,2013-06-06 19:52:00,
2013-06-06 15:03:00,58.0,54.0,-100.00,WNW,285,5.0,9.0,86,0.00,,,0.00,,2013-06-06 20:03:00,
2013-06-06 15:13:00,58.0,55.0,-100.00,WNW,295,6.0,11.0,88,0.00,,,0.00,,2013-06-06 20:13:00,
2013-06-06 15:22:00,58.0,55.0,-100.00,WNW,300,8.0,12.0,87,0.00,,,0.00,,2013-06-06 20:22:00,
2013-06-06 15:33:00,58.0,55.0,-100.00,NW,310,9.0,12.0,91,0.00,,,0.00,,2013-06-06 20:33:00,
2013-06-06 15:42:00,58.0,54.0,-100.00,WNW,295,8.0,11.0,87,0.00,,,0.00,,2013-06-06 20:42:00,
2013-06-06 15:52:00,58.0,55.0,-100.00,NW,320,9.0,12.0,87,0.00,,,0.00,,2013-06-06 20:52:00,
2013-06-06 16:03:00,59.0,55.0,-100.00,WNW,290,5.0,12.0,88,0.00,,,0.00,,2013-06-06 21:03:00,
2013-06-06 16:12:00,58.0,55.0,-100.00,NW,325,7.0,11.0,89,0.00,,,0.00,,2013-06-06 21:12:00,
2013-06-06 16:22:00,57.0,55.0,-100.00,NNW,335,7.0,12.0,92,0.00,,,0.00,,2013-06-06 21:22:00,
2013-06-06 16:33:00,57.0,55.0,-100.00,WNW,300,6.0,11.0,90,0.00,,,0.00,,2013-06-06 21:33:00,
2013-06-06 16:43:00,58.0,55.0,-100.00,WNW,295,7.0,10.0,89,0.00,,,0.00,,2013-06-06 21:43:00,
2013-06-06 16:53:00,58.0,55.0,-100.00,West,275,7.0,10.0,90,0.00,,,0.00,,2013-06-06 21:53:00,
2013-06-06 17:03:00,59.0,55.0,-100.00,West,280,6.0,11.0,86,0.00,,,0.00,,2013-06-06 22:03:00,
2013-06-06 17:13:00,59.0,55.0,-100.00,WNW,290,6.0,11.0,86,0.00,,,0.00,,2013-06-06 22:13:00,
2013-06-06 17:23:00,60.0,55.0,-100.00,West,275,6.0,11.0,81,0.00,,,0.00,,2013-06-06 22:23:00,
2013-06-06 17:33:00,59.0,54.0,-100.00,WNW,295,9.0,14.0,85,0.00,,,0.00,,2013-06-06 22:33:00,
2013-06-06 17:43:00,59.0,54.0,-100.00,West,275,10.0,12.0,83,0.00,,,0.00,,2013-06-06 22:43:00,
2013-06-06 17:52:00,59.0,55.0,-100.00,West,280,7.0,12.0,85,0.00,,,0.00,,2013-06-06 22:52:00,
2013-06-06 18:02:00,58.0,54.0,-100.00,WNW,285,11.0,14.0,85,0.00,,,0.00,,2013-06-06 23:02:00,
2013-06-06 18:12:00,58.0,55.0,-100.00,NW,310,10.0,14.0,90,0.00,,,0.00,,2013-06-06 23:12:00,
2013-06-06 18:22:00,59.0,54.0,-100.00,West,275,9.0,13.0,85,0.00,,,0.00,,2013-06-06 23:22:00,
2013-06-06 18:33:00,58.0,55.0,-100.00,WNW,290,10.0,13.0,88,0.00,,,0.00,,2013-06-06 23:33:00,
2013-06-06 18:42:00,57.0,55.0,-100.00,WNW,290,9.0,13.0,90,0.00,,,0.00,,2013-06-06 23:42:00,
2013-06-06 18:52:00,57.0,55.0,-100.00,WNW,290,8.0,15.0,90,0.00,,,0.00,,2013-06-06 23:52:00,
2013-06-06 19:02:00,57.0,54.0,-100.00,WNW,290,6.0,14.0,88,0.00,,,0.00,,2013-06-07 00:02:00,
2013-06-06 19:12:00,57.0,54.0,-100.00,West,270,7.0,11.0,88,0.00,,,0.00,,2013-06-07 00:12:00,
2013-06-06 19:22:00,57.0,54.0,-100.00,WNW,285,6.0,10.0,89,0.00,,,0.00,,2013-06-07 00:22:00,
2013-06-06 19:32:00,56.0,54.0,-100.00,West,275,7.0,12.0,91,0.00,,,0.00,,2013-06-07 00:32:00,
2013-06-06 19:42:00,56.0,55.0,-100.00,WNW,290,6.0,10.0,94,0.00,,,0.00,,2013-06-07 00:42:00,
2013-06-06 19:52:00,56.0,55.0,-100.00,West,270,6.0,9.0,93,0.00,,,0.00,,2013-06-07 00:52:00,
2013-06-06 20:02:00,56.0,55.0,-100.00,West,275,7.0,11.0,94,0.00,,,0.00,,2013-06-07 01:02:00,
2013-06-06 20:12:00,56.0,55.0,-100.00,West,270,7.0,11.0,95,0.00,,,0.00,,2013-06-07 01:12:00,
2013-06-06 20:22:00,56.0,55.0,-100.00,WNW,295,8.0,11.0,96,0.00,,,0.00,,2013-06-07 01:22:00,
2013-06-06 21:02:00,55.0,55.0,-100.00,West,275,6.0,9.0,99,0.00,,,0.00,,2013-06-07 02:02:00,
2013-06-06 23:22:00,55.0,54.0,-100.00,WNW,285,5.0,9.0,99,0.00,,,0.00,,2013-06-07 04:22:00,
2013-06-06 23:42:00,54.0,54.0,-100.00,NW,305,4.0,9.0,99,0.00,,,0.00,,2013-06-07 04:42:00,
2013-06-06 23:53:00,54.0,54.0,-100.00,NW,305,4.0,9.0,99,0.00,,,0.00,,2013-06-07 04:53:00,